sensor_id;sensor_type;location;lat;lon;timestamp;temperature;humidity
69626;DHT22;56847;51.984;5.088;2022-07-09T06:07:57;21.40;70.90
69626;DHT22;56847;51.984;5.088;2022-07-09T06:11:36;21.40;70.80
69626;DHT22;56847;51.984;5.088;2022-07-09T07:08:27;23.10;66.50
69626;DHT22;56847;51.984;5.088;2022-07-09T07:10:58;23.10;66.50
69626;DHT22;56847;51.984;5.088;2022-07-09T07:13:26;23.10;66.30
69626;DHT22;56847;51.984;5.088;2022-07-09T07:15:53;23.10;66.40
69626;DHT22;56847;51.984;5.088;2022-07-09T07:18:21;23.10;66.40
69626;DHT22;56847;51.984;5.088;2022-07-09T07:20:51;23.20;66.50
69626;DHT22;56847;51.984;5.088;2022-07-09T07:23:18;23.40;66.50
69626;DHT22;56847;51.984;5.088;2022-07-09T07:25:45;23.50;66.30
69626;DHT22;56847;51.984;5.088;2022-07-09T07:28:12;23.70;66.20
69626;DHT22;56847;51.984;5.088;2022-07-09T07:30:39;24.00;65.80
69626;DHT22;56847;51.984;5.088;2022-07-09T07:33:06;24.20;64.80
69626;DHT22;56847;51.984;5.088;2022-07-09T07:35:33;24.30;64.50
69626;DHT22;56847;51.984;5.088;2022-07-09T07:38:00;24.50;64.30
69626;DHT22;56847;51.984;5.088;2022-07-09T07:40:27;24.70;63.60
69626;DHT22;56847;51.984;5.088;2022-07-09T07:42:55;24.80;62.90
69626;DHT22;56847;51.984;5.088;2022-07-09T07:45:22;24.90;62.30
69626;DHT22;56847;51.984;5.088;2022-07-09T07:47:49;24.90;62.00
69626;DHT22;56847;51.984;5.088;2022-07-09T07:50:16;24.80;61.70
69626;DHT22;56847;51.984;5.088;2022-07-09T07:52:43;24.70;61.30
69626;DHT22;56847;51.984;5.088;2022-07-09T07:55:13;24.50;61.50
69626;DHT22;56847;51.984;5.088;2022-07-09T07:57:40;24.40;61.80
69626;DHT22;56847;51.984;5.088;2022-07-09T08:00:08;24.30;62.00
69626;DHT22;56847;51.984;5.088;2022-07-09T08:02:38;24.20;62.00
69626;DHT22;56847;51.984;5.088;2022-07-09T08:05:06;24.00;62.10
69626;DHT22;56847;51.984;5.088;2022-07-09T08:07:33;23.90;62.60
69626;DHT22;56847;51.984;5.088;2022-07-09T08:10:00;23.90;62.70
69626;DHT22;56847;51.984;5.088;2022-07-09T08:12:28;23.90;62.60
69626;DHT22;56847;51.984;5.088;2022-07-09T08:14:55;24.00;62.60
69626;DHT22;56847;51.984;5.088;2022-07-09T08:17:22;24.20;62.50
69626;DHT22;56847;51.984;5.088;2022-07-09T08:19:49;24.40;62.20
69626;DHT22;56847;51.984;5.088;2022-07-09T08:22:16;24.60;61.60
69626;DHT22;56847;51.984;5.088;2022-07-09T08:24:44;24.70;61.20
69626;DHT22;56847;51.984;5.088;2022-07-09T08:27:10;24.60;60.90
69626;DHT22;56847;51.984;5.088;2022-07-09T08:29:38;24.60;60.60
69626;DHT22;56847;51.984;5.088;2022-07-09T08:32:05;24.50;60.80
69626;DHT22;56847;51.984;5.088;2022-07-09T08:34:32;24.60;60.90
69626;DHT22;56847;51.984;5.088;2022-07-09T08:36:59;24.50;60.30
69626;DHT22;56847;51.984;5.088;2022-07-09T08:39:26;24.50;60.00
69626;DHT22;56847;51.984;5.088;2022-07-09T08:41:54;24.40;59.70
69626;DHT22;56847;51.984;5.088;2022-07-09T08:44:29;24.30;59.80
69626;DHT22;56847;51.984;5.088;2022-07-09T08:47:00;24.30;59.80
69626;DHT22;56847;51.984;5.088;2022-07-09T08:49:28;24.30;59.60
69626;DHT22;56847;51.984;5.088;2022-07-09T08:51:55;24.40;59.50
69626;DHT22;56847;51.984;5.088;2022-07-09T08:54:26;24.50;59.30
69626;DHT22;56847;51.984;5.088;2022-07-09T08:56:54;24.50;59.20
69626;DHT22;56847;51.984;5.088;2022-07-09T08:59:22;24.60;59.10
69626;DHT22;56847;51.984;5.088;2022-07-09T09:01:49;24.60;58.90
69626;DHT22;56847;51.984;5.088;2022-07-09T09:04:17;24.70;59.00
69626;DHT22;56847;51.984;5.088;2022-07-09T09:06:51;24.90;58.80
69626;DHT22;56847;51.984;5.088;2022-07-09T09:09:19;25.10;58.70
69626;DHT22;56847;51.984;5.088;2022-07-09T09:11:58;25.30;58.40
69626;DHT22;56847;51.984;5.088;2022-07-09T09:14:29;25.40;57.80
69626;DHT22;56847;51.984;5.088;2022-07-09T09:17:08;25.40;58.00
69626;DHT22;56847;51.984;5.088;2022-07-09T09:19:41;25.50;57.80
69626;DHT22;56847;51.984;5.088;2022-07-09T09:22:17;25.40;57.10
69626;DHT22;56847;51.984;5.088;2022-07-09T09:24:49;25.30;57.20
69626;DHT22;56847;51.984;5.088;2022-07-09T09:27:27;25.20;56.90
69626;DHT22;56847;51.984;5.088;2022-07-09T09:29:57;25.20;56.60
69626;DHT22;56847;51.984;5.088;2022-07-09T09:32:27;25.10;56.50
69626;DHT22;56847;51.984;5.088;2022-07-09T09:34:54;25.20;56.60
69626;DHT22;56847;51.984;5.088;2022-07-09T09:37:26;25.40;56.80
69626;DHT22;56847;51.984;5.088;2022-07-09T09:39:53;25.40;56.10
69626;DHT22;56847;51.984;5.088;2022-07-09T09:42:24;25.30;55.50
69626;DHT22;56847;51.984;5.088;2022-07-09T09:44:57;25.40;56.10
69626;DHT22;56847;51.984;5.088;2022-07-09T09:47:26;25.70;55.40
69626;DHT22;56847;51.984;5.088;2022-07-09T09:50:03;25.90;55.10
69626;DHT22;56847;51.984;5.088;2022-07-09T09:52:34;26.20;54.20
69626;DHT22;56847;51.984;5.088;2022-07-09T09:55:16;26.40;53.50
69626;DHT22;56847;51.984;5.088;2022-07-09T09:57:44;26.40;52.40
69626;DHT22;56847;51.984;5.088;2022-07-09T10:00:12;26.30;52.70
69626;DHT22;56847;51.984;5.088;2022-07-09T10:02:47;26.40;51.90
69626;DHT22;56847;51.984;5.088;2022-07-09T10:05:16;26.40;51.90
69626;DHT22;56847;51.984;5.088;2022-07-09T10:07:44;26.50;52.10
69626;DHT22;56847;51.984;5.088;2022-07-09T10:10:19;26.50;51.70
69626;DHT22;56847;51.984;5.088;2022-07-09T10:12:47;26.50;51.10
69626;DHT22;56847;51.984;5.088;2022-07-09T10:15:25;26.20;51.10
69626;DHT22;56847;51.984;5.088;2022-07-09T10:17:54;26.10;50.80
69626;DHT22;56847;51.984;5.088;2022-07-09T10:20:33;26.10;50.70
69626;DHT22;56847;51.984;5.088;2022-07-09T10:23:02;26.10;50.80
69626;DHT22;56847;51.984;5.088;2022-07-09T10:25:41;26.00;50.40
69626;DHT22;56847;51.984;5.088;2022-07-09T10:28:17;25.90;50.50
69626;DHT22;56847;51.984;5.088;2022-07-09T10:30:45;25.80;50.60
69626;DHT22;56847;51.984;5.088;2022-07-09T10:33:13;25.60;50.70
69626;DHT22;56847;51.984;5.088;2022-07-09T10:35:45;25.50;51.00
69626;DHT22;56847;51.984;5.088;2022-07-09T10:38:13;25.40;51.20
69626;DHT22;56847;51.984;5.088;2022-07-09T10:40:43;25.30;51.70
69626;DHT22;56847;51.984;5.088;2022-07-09T10:43:11;25.30;51.70
69626;DHT22;56847;51.984;5.088;2022-07-09T10:45:43;25.30;51.40
69626;DHT22;56847;51.984;5.088;2022-07-09T10:48:13;25.30;51.00
69626;DHT22;56847;51.984;5.088;2022-07-09T10:50:42;25.40;51.20
69626;DHT22;56847;51.984;5.088;2022-07-09T10:53:11;25.60;50.60
69626;DHT22;56847;51.984;5.088;2022-07-09T10:55:42;25.70;50.50
69626;DHT22;56847;51.984;5.088;2022-07-09T10:58:20;25.70;49.90
69626;DHT22;56847;51.984;5.088;2022-07-09T11:00:58;25.70;50.00
69626;DHT22;56847;51.984;5.088;2022-07-09T11:03:30;25.80;49.30
69626;DHT22;56847;51.984;5.088;2022-07-09T11:06:01;25.80;49.00
69626;DHT22;56847;51.984;5.088;2022-07-09T11:08:28;25.60;48.70
69626;DHT22;56847;51.984;5.088;2022-07-09T11:10:57;25.50;48.50
69626;DHT22;56847;51.984;5.088;2022-07-09T11:13:27;25.40;48.70
69626;DHT22;56847;51.984;5.088;2022-07-09T11:16:01;25.70;48.80
69626;DHT22;56847;51.984;5.088;2022-07-09T11:18:29;26.00;48.40
69626;DHT22;56847;51.984;5.088;2022-07-09T11:20:56;26.10;47.80
69626;DHT22;56847;51.984;5.088;2022-07-09T11:23:24;26.10;47.60
69626;DHT22;56847;51.984;5.088;2022-07-09T11:25:51;26.20;47.70
69626;DHT22;56847;51.984;5.088;2022-07-09T11:28:25;26.40;47.00
69626;DHT22;56847;51.984;5.088;2022-07-09T11:31:02;26.40;46.60
69626;DHT22;56847;51.984;5.088;2022-07-09T11:33:31;26.20;46.80
69626;DHT22;56847;51.984;5.088;2022-07-09T11:36:18;26.10;47.30
69626;DHT22;56847;51.984;5.088;2022-07-09T11:38:52;26.20;47.60
69626;DHT22;56847;51.984;5.088;2022-07-09T11:41:20;26.20;47.30
69626;DHT22;56847;51.984;5.088;2022-07-09T11:43:48;26.30;47.40
69626;DHT22;56847;51.984;5.088;2022-07-09T11:46:20;26.40;47.10
69626;DHT22;56847;51.984;5.088;2022-07-09T11:48:54;26.50;46.90
69626;DHT22;56847;51.984;5.088;2022-07-09T11:51:32;26.60;46.60
69626;DHT22;56847;51.984;5.088;2022-07-09T11:54:00;26.70;46.50
69626;DHT22;56847;51.984;5.088;2022-07-09T11:56:39;26.60;46.00
69626;DHT22;56847;51.984;5.088;2022-07-09T11:59:06;26.50;46.30
69626;DHT22;56847;51.984;5.088;2022-07-09T12:01:37;26.50;46.40
69626;DHT22;56847;51.984;5.088;2022-07-09T12:04:06;26.50;46.20
69626;DHT22;56847;51.984;5.088;2022-07-09T12:06:34;26.70;46.30
69626;DHT22;56847;51.984;5.088;2022-07-09T12:09:03;26.90;45.90
69626;DHT22;56847;51.984;5.088;2022-07-09T12:11:36;27.10;44.80
69626;DHT22;56847;51.984;5.088;2022-07-09T12:14:03;26.80;44.70
69626;DHT22;56847;51.984;5.088;2022-07-09T12:16:31;26.60;44.90
69626;DHT22;56847;51.984;5.088;2022-07-09T12:18:58;26.60;44.40
69626;DHT22;56847;51.984;5.088;2022-07-09T12:21:26;26.60;44.90
69626;DHT22;56847;51.984;5.088;2022-07-09T12:23:59;26.50;45.30
69626;DHT22;56847;51.984;5.088;2022-07-09T12:26:43;26.40;45.90
69626;DHT22;56847;51.984;5.088;2022-07-09T12:29:30;26.30;46.20
69626;DHT22;56847;51.984;5.088;2022-07-09T12:31:57;26.60;45.70
69626;DHT22;56847;51.984;5.088;2022-07-09T12:34:24;26.70;45.60
69626;DHT22;56847;51.984;5.088;2022-07-09T12:36:51;26.60;45.60
69626;DHT22;56847;51.984;5.088;2022-07-09T12:39:27;26.30;46.10
69626;DHT22;56847;51.984;5.088;2022-07-09T12:41:55;26.00;46.50
69626;DHT22;56847;51.984;5.088;2022-07-09T12:44:22;25.80;46.90
69626;DHT22;56847;51.984;5.088;2022-07-09T12:46:53;25.80;46.80
69626;DHT22;56847;51.984;5.088;2022-07-09T12:49:21;25.90;46.60
69626;DHT22;56847;51.984;5.088;2022-07-09T12:52:24;25.90;46.30
69626;DHT22;56847;51.984;5.088;2022-07-09T12:55:18;26.00;46.50
69626;DHT22;56847;51.984;5.088;2022-07-09T12:57:45;26.20;46.20
69626;DHT22;56847;51.984;5.088;2022-07-09T13:00:41;26.30;45.80
69626;DHT22;56847;51.984;5.088;2022-07-09T13:03:43;26.20;45.70
69626;DHT22;56847;51.984;5.088;2022-07-09T13:06:38;25.90;46.30
69626;DHT22;56847;51.984;5.088;2022-07-09T13:09:11;26.00;45.90
69626;DHT22;56847;51.984;5.088;2022-07-09T13:11:40;26.10;45.30
69626;DHT22;56847;51.984;5.088;2022-07-09T13:14:08;26.30;44.90
69626;DHT22;56847;51.984;5.088;2022-07-09T13:16:40;26.50;44.60
69626;DHT22;56847;51.984;5.088;2022-07-09T13:19:22;26.60;44.10
69626;DHT22;56847;51.984;5.088;2022-07-09T13:21:53;26.70;44.30
69626;DHT22;56847;51.984;5.088;2022-07-09T13:24:28;26.80;44.20
69626;DHT22;56847;51.984;5.088;2022-07-09T13:26:55;26.90;44.30
69626;DHT22;56847;51.984;5.088;2022-07-09T13:29:22;27.00;44.20
69626;DHT22;56847;51.984;5.088;2022-07-09T13:31:49;27.10;43.70
69626;DHT22;56847;51.984;5.088;2022-07-09T13:34:18;27.10;43.50
69626;DHT22;56847;51.984;5.088;2022-07-09T13:36:45;27.20;43.90
69626;DHT22;56847;51.984;5.088;2022-07-09T13:39:13;27.40;43.70
69626;DHT22;56847;51.984;5.088;2022-07-09T13:41:39;27.50;43.70
69626;DHT22;56847;51.984;5.088;2022-07-09T13:44:07;27.60;43.30
69626;DHT22;56847;51.984;5.088;2022-07-09T13:46:34;27.60;43.10
69626;DHT22;56847;51.984;5.088;2022-07-09T13:49:01;27.60;43.30
69626;DHT22;56847;51.984;5.088;2022-07-09T13:51:29;27.80;43.40
69626;DHT22;56847;51.984;5.088;2022-07-09T13:53:56;27.90;42.80
69626;DHT22;56847;51.984;5.088;2022-07-09T13:56:24;27.90;42.40
69626;DHT22;56847;51.984;5.088;2022-07-09T13:58:53;28.00;42.30
69626;DHT22;56847;51.984;5.088;2022-07-09T14:01:23;27.90;42.40
69626;DHT22;56847;51.984;5.088;2022-07-09T14:03:53;27.80;42.80
69626;DHT22;56847;51.984;5.088;2022-07-09T14:06:21;27.80;43.60
69626;DHT22;56847;51.984;5.088;2022-07-09T14:09:09;27.50;44.50
69626;DHT22;56847;51.984;5.088;2022-07-09T14:11:36;27.40;45.50
69626;DHT22;56847;51.984;5.088;2022-07-09T14:14:03;27.40;45.60
69626;DHT22;56847;51.984;5.088;2022-07-09T14:16:30;27.20;45.80
69626;DHT22;56847;51.984;5.088;2022-07-09T14:18:57;27.30;46.30
69626;DHT22;56847;51.984;5.088;2022-07-09T14:21:24;27.50;46.40
69626;DHT22;56847;51.984;5.088;2022-07-09T14:23:51;27.60;46.00
69626;DHT22;56847;51.984;5.088;2022-07-09T14:26:18;27.70;46.00
69626;DHT22;56847;51.984;5.088;2022-07-09T14:28:45;27.80;45.80
69626;DHT22;56847;51.984;5.088;2022-07-09T14:31:12;27.70;45.70
69626;DHT22;56847;51.984;5.088;2022-07-09T14:33:46;27.80;45.40
69626;DHT22;56847;51.984;5.088;2022-07-09T14:36:15;27.60;45.30
69626;DHT22;56847;51.984;5.088;2022-07-09T14:38:42;27.60;45.80
69626;DHT22;56847;51.984;5.088;2022-07-09T14:41:09;27.70;45.70
69626;DHT22;56847;51.984;5.088;2022-07-09T14:43:36;27.80;45.30
69626;DHT22;56847;51.984;5.088;2022-07-09T14:46:08;27.90;45.60
69626;DHT22;56847;51.984;5.088;2022-07-09T14:48:37;28.20;45.30
69626;DHT22;56847;51.984;5.088;2022-07-09T14:51:07;28.40;44.80
69626;DHT22;56847;51.984;5.088;2022-07-09T14:53:34;28.50;44.50
69626;DHT22;56847;51.984;5.088;2022-07-09T14:56:09;28.50;43.80
69626;DHT22;56847;51.984;5.088;2022-07-09T14:58:36;28.40;43.20
69626;DHT22;56847;51.984;5.088;2022-07-09T15:01:04;28.20;42.90
69626;DHT22;56847;51.984;5.088;2022-07-09T15:03:31;28.20;43.10
69626;DHT22;56847;51.984;5.088;2022-07-09T15:06:01;28.20;43.10
69626;DHT22;56847;51.984;5.088;2022-07-09T15:08:28;28.20;42.90
69626;DHT22;56847;51.984;5.088;2022-07-09T15:10:55;28.10;42.80
69626;DHT22;56847;51.984;5.088;2022-07-09T15:13:22;28.00;42.60
69626;DHT22;56847;51.984;5.088;2022-07-09T15:15:49;27.80;42.50
69626;DHT22;56847;51.984;5.088;2022-07-09T15:18:16;27.80;42.80
69626;DHT22;56847;51.984;5.088;2022-07-09T15:20:43;28.00;42.90
69626;DHT22;56847;51.984;5.088;2022-07-09T15:23:10;28.20;42.60
69626;DHT22;56847;51.984;5.088;2022-07-09T15:25:37;28.30;42.30
69626;DHT22;56847;51.984;5.088;2022-07-09T15:28:04;28.30;42.00
69626;DHT22;56847;51.984;5.088;2022-07-09T15:30:33;28.30;41.80
69626;DHT22;56847;51.984;5.088;2022-07-09T15:33:00;28.10;41.70
69626;DHT22;56847;51.984;5.088;2022-07-09T15:35:27;28.00;41.90
69626;DHT22;56847;51.984;5.088;2022-07-09T15:37:54;27.90;41.90
69626;DHT22;56847;51.984;5.088;2022-07-09T15:40:21;27.80;41.60
69626;DHT22;56847;51.984;5.088;2022-07-09T15:42:48;27.80;41.70
69626;DHT22;56847;51.984;5.088;2022-07-09T15:45:18;27.90;41.40
69626;DHT22;56847;51.984;5.088;2022-07-09T15:47:47;27.80;41.40
69626;DHT22;56847;51.984;5.088;2022-07-09T15:50:18;27.80;41.70
69626;DHT22;56847;51.984;5.088;2022-07-09T15:52:48;27.90;41.70
69626;DHT22;56847;51.984;5.088;2022-07-09T15:55:15;28.10;41.90
69626;DHT22;56847;51.984;5.088;2022-07-09T15:57:42;28.30;41.90
69626;DHT22;56847;51.984;5.088;2022-07-09T16:00:11;28.50;41.30
69626;DHT22;56847;51.984;5.088;2022-07-09T16:02:40;28.40;41.30
69626;DHT22;56847;51.984;5.088;2022-07-09T16:05:08;28.40;41.30
69626;DHT22;56847;51.984;5.088;2022-07-09T16:07:35;28.40;41.10
69626;DHT22;56847;51.984;5.088;2022-07-09T16:10:03;28.20;41.20
69626;DHT22;56847;51.984;5.088;2022-07-09T16:12:30;28.20;41.40
69626;DHT22;56847;51.984;5.088;2022-07-09T16:15:20;28.20;41.20
69626;DHT22;56847;51.984;5.088;2022-07-09T16:17:47;28.20;41.00
69626;DHT22;56847;51.984;5.088;2022-07-09T16:20:22;28.00;41.00
69626;DHT22;56847;51.984;5.088;2022-07-09T16:22:49;27.80;41.00
69626;DHT22;56847;51.984;5.088;2022-07-09T16:25:18;27.70;41.30
69626;DHT22;56847;51.984;5.088;2022-07-09T16:27:45;27.60;41.40
69626;DHT22;56847;51.984;5.088;2022-07-09T16:30:13;27.60;41.70
69626;DHT22;56847;51.984;5.088;2022-07-09T16:32:40;27.60;41.90
69626;DHT22;56847;51.984;5.088;2022-07-09T16:35:10;27.70;41.40
69626;DHT22;56847;51.984;5.088;2022-07-09T16:37:37;27.50;41.10
69626;DHT22;56847;51.984;5.088;2022-07-09T16:40:05;27.40;41.70
69626;DHT22;56847;51.984;5.088;2022-07-09T16:42:36;27.70;42.00
69626;DHT22;56847;51.984;5.088;2022-07-09T16:45:09;28.10;41.60
69626;DHT22;56847;51.984;5.088;2022-07-09T16:47:36;28.30;41.00
69626;DHT22;56847;51.984;5.088;2022-07-09T16:50:04;28.30;40.50
69626;DHT22;56847;51.984;5.088;2022-07-09T16:52:33;28.20;40.10
69626;DHT22;56847;51.984;5.088;2022-07-09T16:55:02;28.10;40.00
69626;DHT22;56847;51.984;5.088;2022-07-09T16:57:30;27.90;39.90
69626;DHT22;56847;51.984;5.088;2022-07-09T16:59:57;27.50;40.60
69626;DHT22;56847;51.984;5.088;2022-07-09T17:02:42;27.50;41.20
69626;DHT22;56847;51.984;5.088;2022-07-09T17:05:11;27.80;41.00
69626;DHT22;56847;51.984;5.088;2022-07-09T17:07:40;28.10;40.40
69626;DHT22;56847;51.984;5.088;2022-07-09T17:10:08;28.10;39.50
69626;DHT22;56847;51.984;5.088;2022-07-09T17:12:37;27.80;39.40
69626;DHT22;56847;51.984;5.088;2022-07-09T17:15:08;27.50;39.70
69626;DHT22;56847;51.984;5.088;2022-07-09T17:17:36;27.00;40.00
69626;DHT22;56847;51.984;5.088;2022-07-09T17:20:04;26.50;40.60
69626;DHT22;56847;51.984;5.088;2022-07-09T17:22:33;26.20;41.20
69626;DHT22;56847;51.984;5.088;2022-07-09T17:25:00;25.80;41.40
69626;DHT22;56847;51.984;5.088;2022-07-09T17:27:27;25.60;41.60
69626;DHT22;56847;51.984;5.088;2022-07-09T17:29:54;25.40;41.80
69626;DHT22;56847;51.984;5.088;2022-07-09T17:32:21;25.30;42.00
69626;DHT22;56847;51.984;5.088;2022-07-09T17:34:48;25.40;42.10
69626;DHT22;56847;51.984;5.088;2022-07-09T17:37:18;25.70;41.90
69626;DHT22;56847;51.984;5.088;2022-07-09T17:39:45;25.90;41.60
69626;DHT22;56847;51.984;5.088;2022-07-09T17:42:12;26.10;41.30
69626;DHT22;56847;51.984;5.088;2022-07-09T17:44:39;26.30;40.80
69626;DHT22;56847;51.984;5.088;2022-07-09T17:47:07;26.50;41.00
69626;DHT22;56847;51.984;5.088;2022-07-09T17:49:34;26.70;40.10
69626;DHT22;56847;51.984;5.088;2022-07-09T18:29:54;24.90;40.80
69626;DHT22;56847;51.984;5.088;2022-07-09T18:32:28;24.60;41.00
69626;DHT22;56847;51.984;5.088;2022-07-09T18:34:55;24.40;41.20
69626;DHT22;56847;51.984;5.088;2022-07-09T18:37:25;24.30;41.50
69626;DHT22;56847;51.984;5.088;2022-07-09T18:39:52;24.20;41.60
69626;DHT22;56847;51.984;5.088;2022-07-09T18:42:19;24.10;41.70
69626;DHT22;56847;51.984;5.088;2022-07-09T18:44:46;24.00;42.00
69626;DHT22;56847;51.984;5.088;2022-07-09T18:47:14;23.80;42.40
69626;DHT22;56847;51.984;5.088;2022-07-09T18:49:43;23.80;42.60
69626;DHT22;56847;51.984;5.088;2022-07-09T18:52:10;23.70;42.80
69626;DHT22;56847;51.984;5.088;2022-07-09T18:54:38;23.60;43.10
69626;DHT22;56847;51.984;5.088;2022-07-09T18:57:05;23.60;43.10
69626;DHT22;56847;51.984;5.088;2022-07-09T18:59:32;23.50;43.20
69626;DHT22;56847;51.984;5.088;2022-07-09T19:01:59;23.50;43.40
69626;DHT22;56847;51.984;5.088;2022-07-09T19:04:26;23.50;43.70
69626;DHT22;56847;51.984;5.088;2022-07-09T19:06:54;23.50;43.80
69626;DHT22;56847;51.984;5.088;2022-07-09T19:09:22;23.40;43.70
69626;DHT22;56847;51.984;5.088;2022-07-09T19:11:49;23.30;44.00
69626;DHT22;56847;51.984;5.088;2022-07-09T19:14:16;23.20;44.20
69626;DHT22;56847;51.984;5.088;2022-07-09T19:16:43;23.20;44.10
69626;DHT22;56847;51.984;5.088;2022-07-09T19:19:10;23.10;44.20
69626;DHT22;56847;51.984;5.088;2022-07-09T19:21:37;23.10;44.30
69626;DHT22;56847;51.984;5.088;2022-07-09T19:24:05;22.90;44.20
69626;DHT22;56847;51.984;5.088;2022-07-09T19:26:33;22.80;44.30
69626;DHT22;56847;51.984;5.088;2022-07-09T19:29:00;22.70;44.50
69626;DHT22;56847;51.984;5.088;2022-07-09T19:31:27;22.60;44.80
69626;DHT22;56847;51.984;5.088;2022-07-09T19:34:12;22.50;44.90
69626;DHT22;56847;51.984;5.088;2022-07-09T19:36:40;22.30;45.20
69626;DHT22;56847;51.984;5.088;2022-07-09T19:39:13;22.20;45.30
69626;DHT22;56847;51.984;5.088;2022-07-09T19:41:40;22.10;45.60
69626;DHT22;56847;51.984;5.088;2022-07-09T19:44:07;21.90;45.80
69626;DHT22;56847;51.984;5.088;2022-07-09T19:46:36;21.80;46.10
69626;DHT22;56847;51.984;5.088;2022-07-09T19:49:04;21.70;46.40
69626;DHT22;56847;51.984;5.088;2022-07-09T19:51:33;21.60;46.50
69626;DHT22;56847;51.984;5.088;2022-07-09T19:54:00;21.60;46.60
69626;DHT22;56847;51.984;5.088;2022-07-09T19:56:28;21.50;46.80
69626;DHT22;56847;51.984;5.088;2022-07-09T19:59:05;21.40;47.10
69626;DHT22;56847;51.984;5.088;2022-07-09T20:01:33;21.30;47.40
69626;DHT22;56847;51.984;5.088;2022-07-09T20:04:00;21.20;47.70
69626;DHT22;56847;51.984;5.088;2022-07-09T20:06:27;21.20;48.00
69626;DHT22;56847;51.984;5.088;2022-07-09T20:08:54;21.10;48.10
69626;DHT22;56847;51.984;5.088;2022-07-09T20:11:21;21.00;48.40
69626;DHT22;56847;51.984;5.088;2022-07-09T20:13:48;20.80;48.80
69626;DHT22;56847;51.984;5.088;2022-07-09T20:16:16;20.70;49.10
69626;DHT22;56847;51.984;5.088;2022-07-09T20:18:43;20.70;49.20
69626;DHT22;56847;51.984;5.088;2022-07-09T20:21:10;20.60;49.40
69626;DHT22;56847;51.984;5.088;2022-07-09T20:23:49;20.60;49.50
69626;DHT22;56847;51.984;5.088;2022-07-09T20:26:17;20.60;49.60
69626;DHT22;56847;51.984;5.088;2022-07-09T20:28:44;20.50;49.50
69626;DHT22;56847;51.984;5.088;2022-07-09T20:31:11;20.50;49.60
69626;DHT22;56847;51.984;5.088;2022-07-09T20:33:38;20.30;49.90
69626;DHT22;56847;51.984;5.088;2022-07-09T20:36:09;20.20;50.10
69626;DHT22;56847;51.984;5.088;2022-07-09T20:38:36;20.20;50.30
69626;DHT22;56847;51.984;5.088;2022-07-09T20:41:04;20.10;50.40
69626;DHT22;56847;51.984;5.088;2022-07-09T20:43:31;20.10;50.50
69626;DHT22;56847;51.984;5.088;2022-07-09T20:45:58;20.00;50.70
69626;DHT22;56847;51.984;5.088;2022-07-09T20:48:26;20.00;50.90
